sensor_id;sensor_type;location;lat;lon;timestamp;temperature;humidity
30244;DHT22;64022;53.652;9.792;2023-04-01T00:02:06;20.80;69.00
30244;DHT22;64022;53.652;9.792;2023-04-01T00:04:31;20.80;69.00
30244;DHT22;64022;53.652;9.792;2023-04-01T00:06:57;20.80;69.00
30244;DHT22;64022;53.652;9.792;2023-04-01T00:09:23;20.90;69.00
30244;DHT22;64022;53.652;9.792;2023-04-01T00:11:49;20.80;69.00
30244;DHT22;64022;53.652;9.792;2023-04-01T00:14:14;20.80;68.90
30244;DHT22;64022;53.652;9.792;2023-04-01T00:16:40;20.80;68.90
30244;DHT22;64022;53.652;9.792;2023-04-01T00:19:06;20.80;68.90
30244;DHT22;64022;53.652;9.792;2023-04-01T00:21:31;20.80;68.90
30244;DHT22;64022;53.652;9.792;2023-04-01T00:23:57;20.80;68.90
30244;DHT22;64022;53.652;9.792;2023-04-01T00:26:23;20.80;68.80
30244;DHT22;64022;53.652;9.792;2023-04-01T00:28:49;20.80;68.80
30244;DHT22;64022;53.652;9.792;2023-04-01T00:31:15;20.80;68.80
30244;DHT22;64022;53.652;9.792;2023-04-01T00:33:41;20.80;68.80
30244;DHT22;64022;53.652;9.792;2023-04-01T00:36:18;20.80;68.80
30244;DHT22;64022;53.652;9.792;2023-04-01T00:38:44;20.80;68.70
30244;DHT22;64022;53.652;9.792;2023-04-01T00:41:12;20.80;68.70
30244;DHT22;64022;53.652;9.792;2023-04-01T00:43:40;20.80;68.70
30244;DHT22;64022;53.652;9.792;2023-04-01T00:46:06;20.80;68.70
30244;DHT22;64022;53.652;9.792;2023-04-01T00:48:39;20.80;68.70
30244;DHT22;64022;53.652;9.792;2023-04-01T00:51:16;20.80;68.60
30244;DHT22;64022;53.652;9.792;2023-04-01T00:53:47;20.80;68.60
30244;DHT22;64022;53.652;9.792;2023-04-01T00:56:17;20.80;68.60
30244;DHT22;64022;53.652;9.792;2023-04-01T00:58:47;20.80;68.60
30244;DHT22;64022;53.652;9.792;2023-04-01T01:01:14;20.80;68.60
30244;DHT22;64022;53.652;9.792;2023-04-01T01:03:40;20.80;68.50
30244;DHT22;64022;53.652;9.792;2023-04-01T01:09:06;20.80;68.40
30244;DHT22;64022;53.652;9.792;2023-04-01T01:22:52;20.80;68.40
30244;DHT22;64022;53.652;9.792;2023-04-01T01:25:39;20.80;68.50
30244;DHT22;64022;53.652;9.792;2023-04-01T01:28:29;20.70;68.30
30244;DHT22;64022;53.652;9.792;2023-04-01T01:31:15;20.80;68.30
30244;DHT22;64022;53.652;9.792;2023-04-01T01:33:52;20.80;68.40
30244;DHT22;64022;53.652;9.792;2023-04-01T01:36:31;20.80;68.40
30244;DHT22;64022;53.652;9.792;2023-04-01T01:38:57;20.80;68.40
30244;DHT22;64022;53.652;9.792;2023-04-01T01:41:25;20.80;68.30
30244;DHT22;64022;53.652;9.792;2023-04-01T01:43:53;20.80;68.30
30244;DHT22;64022;53.652;9.792;2023-04-01T01:46:23;20.80;68.30
30244;DHT22;64022;53.652;9.792;2023-04-01T01:48:51;20.80;68.30
30244;DHT22;64022;53.652;9.792;2023-04-01T01:51:18;20.80;68.30
30244;DHT22;64022;53.652;9.792;2023-04-01T01:53:45;20.80;68.20
30244;DHT22;64022;53.652;9.792;2023-04-01T01:56:11;20.80;68.20
30244;DHT22;64022;53.652;9.792;2023-04-01T01:58:54;20.80;68.20
30244;DHT22;64022;53.652;9.792;2023-04-01T02:01:24;20.80;68.10
30244;DHT22;64022;53.652;9.792;2023-04-01T02:03:51;20.80;68.10
30244;DHT22;64022;53.652;9.792;2023-04-01T02:06:19;20.80;68.10
30244;DHT22;64022;53.652;9.792;2023-04-01T02:08:59;20.80;68.10
30244;DHT22;64022;53.652;9.792;2023-04-01T02:11:42;20.80;68.00
30244;DHT22;64022;53.652;9.792;2023-04-01T02:16:39;20.80;68.00
30244;DHT22;64022;53.652;9.792;2023-04-01T02:19:07;20.80;68.00
30244;DHT22;64022;53.652;9.792;2023-04-01T02:21:35;20.80;68.00
30244;DHT22;64022;53.652;9.792;2023-04-01T02:24:05;20.80;68.00
30244;DHT22;64022;53.652;9.792;2023-04-01T02:26:34;20.80;68.00
30244;DHT22;64022;53.652;9.792;2023-04-01T02:29:01;20.80;68.00
30244;DHT22;64022;53.652;9.792;2023-04-01T02:31:29;20.80;68.00
30244;DHT22;64022;53.652;9.792;2023-04-01T02:33:55;20.80;68.00
30244;DHT22;64022;53.652;9.792;2023-04-01T02:36:21;20.80;68.00
30244;DHT22;64022;53.652;9.792;2023-04-01T02:38:47;20.80;68.00
30244;DHT22;64022;53.652;9.792;2023-04-01T02:41:15;20.80;68.00
30244;DHT22;64022;53.652;9.792;2023-04-01T02:43:40;20.80;68.00
30244;DHT22;64022;53.652;9.792;2023-04-01T02:46:06;20.80;68.00
30244;DHT22;64022;53.652;9.792;2023-04-01T02:48:31;20.80;68.00
30244;DHT22;64022;53.652;9.792;2023-04-01T02:50:57;20.80;68.00
30244;DHT22;64022;53.652;9.792;2023-04-01T02:53:22;20.80;68.50
30244;DHT22;64022;53.652;9.792;2023-04-01T02:55:48;20.80;68.00
30244;DHT22;64022;53.652;9.792;2023-04-01T02:58:16;20.80;68.00
30244;DHT22;64022;53.652;9.792;2023-04-01T03:00:42;20.80;68.00
30244;DHT22;64022;53.652;9.792;2023-04-01T03:03:08;20.80;67.90
30244;DHT22;64022;53.652;9.792;2023-04-01T03:05:34;20.80;67.90
30244;DHT22;64022;53.652;9.792;2023-04-01T03:08:00;20.80;67.90
30244;DHT22;64022;53.652;9.792;2023-04-01T03:10:25;20.80;67.90
30244;DHT22;64022;53.652;9.792;2023-04-01T03:12:51;20.80;68.00
30244;DHT22;64022;53.652;9.792;2023-04-01T03:15:17;20.80;67.90
30244;DHT22;64022;53.652;9.792;2023-04-01T03:17:42;20.80;67.90
30244;DHT22;64022;53.652;9.792;2023-04-01T03:20:10;20.80;67.90
30244;DHT22;64022;53.652;9.792;2023-04-01T03:22:36;20.80;67.90
30244;DHT22;64022;53.652;9.792;2023-04-01T03:25:03;20.70;67.80
30244;DHT22;64022;53.652;9.792;2023-04-01T03:27:29;20.80;67.90
30244;DHT22;64022;53.652;9.792;2023-04-01T03:29:54;20.80;67.90
30244;DHT22;64022;53.652;9.792;2023-04-01T03:32:20;20.80;67.80
30244;DHT22;64022;53.652;9.792;2023-04-01T03:34:45;20.80;67.80
30244;DHT22;64022;53.652;9.792;2023-04-01T03:37:11;20.70;67.80
30244;DHT22;64022;53.652;9.792;2023-04-01T03:39:36;20.80;67.90
30244;DHT22;64022;53.652;9.792;2023-04-01T03:42:02;20.80;67.90
30244;DHT22;64022;53.652;9.792;2023-04-01T03:44:31;20.80;67.80
30244;DHT22;64022;53.652;9.792;2023-04-01T03:46:57;20.70;67.80
30244;DHT22;64022;53.652;9.792;2023-04-01T03:49:23;20.70;67.80
30244;DHT22;64022;53.652;9.792;2023-04-01T03:51:48;20.80;67.80
30244;DHT22;64022;53.652;9.792;2023-04-01T03:54:14;20.70;67.80
30244;DHT22;64022;53.652;9.792;2023-04-01T03:56:39;20.70;67.80
30244;DHT22;64022;53.652;9.792;2023-04-01T03:59:06;20.70;67.80
30244;DHT22;64022;53.652;9.792;2023-04-01T04:01:32;20.70;67.80
30244;DHT22;64022;53.652;9.792;2023-04-01T04:03:58;20.70;67.60
30244;DHT22;64022;53.652;9.792;2023-04-01T04:06:24;20.70;67.90
30244;DHT22;64022;53.652;9.792;2023-04-01T04:08:50;20.70;67.90
30244;DHT22;64022;53.652;9.792;2023-04-01T04:11:16;20.70;67.80
30244;DHT22;64022;53.652;9.792;2023-04-01T04:13:42;20.70;67.80
30244;DHT22;64022;53.652;9.792;2023-04-01T04:16:10;20.70;67.80
30244;DHT22;64022;53.652;9.792;2023-04-01T04:18:36;20.70;67.80
30244;DHT22;64022;53.652;9.792;2023-04-01T04:21:03;20.70;67.80
30244;DHT22;64022;53.652;9.792;2023-04-01T04:23:28;20.70;67.70
30244;DHT22;64022;53.652;9.792;2023-04-01T04:25:56;20.70;67.70
30244;DHT22;64022;53.652;9.792;2023-04-01T04:28:22;20.80;67.70
30244;DHT22;64022;53.652;9.792;2023-04-01T04:30:47;20.70;67.50
30244;DHT22;64022;53.652;9.792;2023-04-01T04:33:13;20.70;67.80
30244;DHT22;64022;53.652;9.792;2023-04-01T04:35:38;20.70;67.80
30244;DHT22;64022;53.652;9.792;2023-04-01T04:38:04;20.70;67.80
30244;DHT22;64022;53.652;9.792;2023-04-01T04:40:30;20.70;67.80
30244;DHT22;64022;53.652;9.792;2023-04-01T04:42:55;20.70;67.70
30244;DHT22;64022;53.652;9.792;2023-04-01T04:45:21;20.70;67.70
30244;DHT22;64022;53.652;9.792;2023-04-01T04:47:46;20.70;67.70
30244;DHT22;64022;53.652;9.792;2023-04-01T04:50:12;20.70;67.70
30244;DHT22;64022;53.652;9.792;2023-04-01T04:52:38;20.70;67.70
30244;DHT22;64022;53.652;9.792;2023-04-01T04:55:04;20.70;67.70
30244;DHT22;64022;53.652;9.792;2023-04-01T04:57:29;20.70;67.70
30244;DHT22;64022;53.652;9.792;2023-04-01T04:59:55;20.70;67.70
30244;DHT22;64022;53.652;9.792;2023-04-01T05:02:21;20.70;67.70
30244;DHT22;64022;53.652;9.792;2023-04-01T05:04:46;20.70;67.70
30244;DHT22;64022;53.652;9.792;2023-04-01T05:07:12;20.70;67.60
30244;DHT22;64022;53.652;9.792;2023-04-01T05:09:37;20.70;67.60
30244;DHT22;64022;53.652;9.792;2023-04-01T05:12:03;20.70;67.60
30244;DHT22;64022;53.652;9.792;2023-04-01T05:14:29;20.70;67.60
30244;DHT22;64022;53.652;9.792;2023-04-01T05:16:54;20.70;67.60
30244;DHT22;64022;53.652;9.792;2023-04-01T05:19:20;20.70;67.50
30244;DHT22;64022;53.652;9.792;2023-04-01T05:21:45;20.70;67.50
30244;DHT22;64022;53.652;9.792;2023-04-01T05:24:11;20.70;67.50
30244;DHT22;64022;53.652;9.792;2023-04-01T05:26:37;20.70;67.50
30244;DHT22;64022;53.652;9.792;2023-04-01T05:29:03;20.70;67.50
30244;DHT22;64022;53.652;9.792;2023-04-01T05:31:29;20.70;67.50
30244;DHT22;64022;53.652;9.792;2023-04-01T05:33:55;20.70;67.50
30244;DHT22;64022;53.652;9.792;2023-04-01T05:36:21;20.70;67.50
30244;DHT22;64022;53.652;9.792;2023-04-01T05:38:47;20.70;67.50
30244;DHT22;64022;53.652;9.792;2023-04-01T05:41:13;20.70;67.40
30244;DHT22;64022;53.652;9.792;2023-04-01T05:43:39;20.70;67.40
30244;DHT22;64022;53.652;9.792;2023-04-01T05:46:05;20.60;67.10
30244;DHT22;64022;53.652;9.792;2023-04-01T05:48:32;20.60;67.90
30244;DHT22;64022;53.652;9.792;2023-04-01T05:50:57;20.60;67.40
30244;DHT22;64022;53.652;9.792;2023-04-01T05:53:23;20.60;67.40
30244;DHT22;64022;53.652;9.792;2023-04-01T05:55:48;20.60;67.30
30244;DHT22;64022;53.652;9.792;2023-04-01T05:58:15;20.60;67.80
30244;DHT22;64022;53.652;9.792;2023-04-01T06:00:41;20.70;67.80
30244;DHT22;64022;53.652;9.792;2023-04-01T06:03:06;20.60;67.30
30244;DHT22;64022;53.652;9.792;2023-04-01T06:05:41;20.70;67.30
30244;DHT22;64022;53.652;9.792;2023-04-01T06:08:17;20.70;67.30
30244;DHT22;64022;53.652;9.792;2023-04-01T06:19:54;20.60;67.10
30244;DHT22;64022;53.652;9.792;2023-04-01T06:22:49;20.60;67.20
30244;DHT22;64022;53.652;9.792;2023-04-01T06:25:45;20.60;67.10
30244;DHT22;64022;53.652;9.792;2023-04-01T06:30:47;20.60;67.10
30244;DHT22;64022;53.652;9.792;2023-04-01T06:33:27;20.60;67.00
30244;DHT22;64022;53.652;9.792;2023-04-01T06:41:19;20.60;67.10
30244;DHT22;64022;53.652;9.792;2023-04-01T06:46:57;20.60;67.10
30244;DHT22;64022;53.652;9.792;2023-04-01T06:52:26;20.60;66.90
30244;DHT22;64022;53.652;9.792;2023-04-01T06:57:37;20.50;67.40
30244;DHT22;64022;53.652;9.792;2023-04-01T07:00:19;20.60;67.00
30244;DHT22;64022;53.652;9.792;2023-04-01T07:03:00;20.60;67.00
30244;DHT22;64022;53.652;9.792;2023-04-01T07:05:34;20.60;67.50
30244;DHT22;64022;53.652;9.792;2023-04-01T07:08:11;20.60;66.90
30244;DHT22;64022;53.652;9.792;2023-04-01T07:10:58;20.60;66.90
30244;DHT22;64022;53.652;9.792;2023-04-01T07:13:41;20.60;66.80
30244;DHT22;64022;53.652;9.792;2023-04-01T07:16:22;20.60;66.80
30244;DHT22;64022;53.652;9.792;2023-04-01T07:21:48;20.60;66.70
30244;DHT22;64022;53.652;9.792;2023-04-01T07:24:37;20.60;66.80
30244;DHT22;64022;53.652;9.792;2023-04-01T07:27:09;20.60;66.60
30244;DHT22;64022;53.652;9.792;2023-04-01T07:29:36;20.60;66.70
30244;DHT22;64022;53.652;9.792;2023-04-01T07:32:35;20.60;66.60
30244;DHT22;64022;53.652;9.792;2023-04-01T07:40:53;20.60;66.50
30244;DHT22;64022;53.652;9.792;2023-04-01T07:43:46;20.60;66.60
30244;DHT22;64022;53.652;9.792;2023-04-01T07:46:49;20.50;66.50
30244;DHT22;64022;53.652;9.792;2023-04-01T07:49:30;20.50;66.40
30244;DHT22;64022;53.652;9.792;2023-04-01T07:52:09;20.50;66.50
30244;DHT22;64022;53.652;9.792;2023-04-01T07:57:43;20.50;66.50
30244;DHT22;64022;53.652;9.792;2023-04-01T08:00:27;20.50;66.50
30244;DHT22;64022;53.652;9.792;2023-04-01T08:10:57;20.60;66.50
30244;DHT22;64022;53.652;9.792;2023-04-01T08:19:43;20.60;66.50
30244;DHT22;64022;53.652;9.792;2023-04-01T08:22:29;20.60;66.50
30244;DHT22;64022;53.652;9.792;2023-04-01T08:24:58;20.60;66.60
30244;DHT22;64022;53.652;9.792;2023-04-01T08:27:45;20.50;66.80
30244;DHT22;64022;53.652;9.792;2023-04-01T08:30:19;20.50;66.70
30244;DHT22;64022;53.652;9.792;2023-04-01T08:32:56;20.60;66.90
30244;DHT22;64022;53.652;9.792;2023-04-01T08:35:38;20.50;66.80
30244;DHT22;64022;53.652;9.792;2023-04-01T08:38:11;20.60;66.90
30244;DHT22;64022;53.652;9.792;2023-04-01T08:43:55;20.60;66.90
30244;DHT22;64022;53.652;9.792;2023-04-01T08:49:32;20.50;67.10
30244;DHT22;64022;53.652;9.792;2023-04-01T08:55:58;20.60;67.10
30244;DHT22;64022;53.652;9.792;2023-04-01T08:58:40;20.50;67.00
30244;DHT22;64022;53.652;9.792;2023-04-01T09:08:52;20.50;67.30
30244;DHT22;64022;53.652;9.792;2023-04-01T09:17:17;20.60;67.30
30244;DHT22;64022;53.652;9.792;2023-04-01T09:31:48;20.50;67.30
30244;DHT22;64022;53.652;9.792;2023-04-01T09:45:00;20.60;67.30
30244;DHT22;64022;53.652;9.792;2023-04-01T09:52:41;20.60;67.40
30244;DHT22;64022;53.652;9.792;2023-04-01T10:04:41;20.60;67.30
30244;DHT22;64022;53.652;9.792;2023-04-01T10:10:26;20.60;67.40
30244;DHT22;64022;53.652;9.792;2023-04-01T10:15:44;20.60;67.40
30244;DHT22;64022;53.652;9.792;2023-04-01T10:18:50;20.60;66.70
30244;DHT22;64022;53.652;9.792;2023-04-01T10:29:58;20.20;65.20
30244;DHT22;64022;53.652;9.792;2023-04-01T10:41:58;20.20;65.40
30244;DHT22;64022;53.652;9.792;2023-04-01T10:44:35;20.30;65.60
30244;DHT22;64022;53.652;9.792;2023-04-01T10:56:13;20.30;65.60
30244;DHT22;64022;53.652;9.792;2023-04-01T10:59:27;20.30;65.70
30244;DHT22;64022;53.652;9.792;2023-04-01T11:14:28;20.40;65.70
30244;DHT22;64022;53.652;9.792;2023-04-01T11:17:30;20.40;65.80
30244;DHT22;64022;53.652;9.792;2023-04-01T11:20:41;20.40;65.70
30244;DHT22;64022;53.652;9.792;2023-04-01T11:26:10;20.40;65.80
30244;DHT22;64022;53.652;9.792;2023-04-01T11:28:45;20.40;65.80
30244;DHT22;64022;53.652;9.792;2023-04-01T11:34:28;20.40;65.70
30244;DHT22;64022;53.652;9.792;2023-04-01T11:37:16;20.40;65.70
30244;DHT22;64022;53.652;9.792;2023-04-01T11:39:58;20.50;65.70
30244;DHT22;64022;53.652;9.792;2023-04-01T11:43:03;20.40;65.70
30244;DHT22;64022;53.652;9.792;2023-04-01T11:48:29;20.40;65.70
30244;DHT22;64022;53.652;9.792;2023-04-01T11:51:19;20.50;65.70
30244;DHT22;64022;53.652;9.792;2023-04-01T11:59:44;20.50;65.70
30244;DHT22;64022;53.652;9.792;2023-04-01T12:05:37;20.50;66.20
30244;DHT22;64022;53.652;9.792;2023-04-01T12:11:17;20.50;65.70
30244;DHT22;64022;53.652;9.792;2023-04-01T12:14:03;20.40;65.60
30244;DHT22;64022;53.652;9.792;2023-04-01T12:22:32;20.50;65.60
30244;DHT22;64022;53.652;9.792;2023-04-01T12:25:35;20.40;65.60
30244;DHT22;64022;53.652;9.792;2023-04-01T12:49:38;20.50;65.60
30244;DHT22;64022;53.652;9.792;2023-04-01T12:52:15;20.50;65.60
30244;DHT22;64022;53.652;9.792;2023-04-01T13:03:27;20.50;65.60
30244;DHT22;64022;53.652;9.792;2023-04-01T13:08:38;20.50;65.60
30244;DHT22;64022;53.652;9.792;2023-04-01T13:13:47;20.40;65.50
30244;DHT22;64022;53.652;9.792;2023-04-01T13:16:51;20.50;65.50
30244;DHT22;64022;53.652;9.792;2023-04-01T13:19:43;20.40;65.30
30244;DHT22;64022;53.652;9.792;2023-04-01T13:25:40;20.40;65.50
30244;DHT22;64022;53.652;9.792;2023-04-01T13:28:20;20.40;65.30
30244;DHT22;64022;53.652;9.792;2023-04-01T13:31:01;20.40;65.40
30244;DHT22;64022;53.652;9.792;2023-04-01T13:36:22;20.40;65.40
30244;DHT22;64022;53.652;9.792;2023-04-01T13:44:18;20.40;65.30
30244;DHT22;64022;53.652;9.792;2023-04-01T13:47:22;20.40;65.30
30244;DHT22;64022;53.652;9.792;2023-04-01T13:50:17;20.40;65.20
30244;DHT22;64022;53.652;9.792;2023-04-01T13:55:44;20.40;65.30
30244;DHT22;64022;53.652;9.792;2023-04-01T14:03:26;20.40;65.30
30244;DHT22;64022;53.652;9.792;2023-04-01T14:06:06;20.40;65.30
30244;DHT22;64022;53.652;9.792;2023-04-01T14:09:04;20.40;65.30
30244;DHT22;64022;53.652;9.792;2023-04-01T14:12:09;20.40;65.20
30244;DHT22;64022;53.652;9.792;2023-04-01T14:15:03;20.40;65.20
30244;DHT22;64022;53.652;9.792;2023-04-01T14:28:53;20.40;65.10
30244;DHT22;64022;53.652;9.792;2023-04-01T14:35:05;20.30;65.00
30244;DHT22;64022;53.652;9.792;2023-04-01T14:40:46;20.40;65.20
30244;DHT22;64022;53.652;9.792;2023-04-01T14:51:39;20.30;65.00
30244;DHT22;64022;53.652;9.792;2023-04-01T14:56:48;20.30;65.00
30244;DHT22;64022;53.652;9.792;2023-04-01T14:59:26;20.30;65.00
30244;DHT22;64022;53.652;9.792;2023-04-01T15:13:16;20.30;64.90
30244;DHT22;64022;53.652;9.792;2023-04-01T15:18:44;20.30;64.90
30244;DHT22;64022;53.652;9.792;2023-04-01T15:24:06;20.30;64.90
30244;DHT22;64022;53.652;9.792;2023-04-01T15:26:47;20.30;64.90
30244;DHT22;64022;53.652;9.792;2023-04-01T15:32:30;20.30;64.80
30244;DHT22;64022;53.652;9.792;2023-04-01T15:38:28;20.30;64.80
30244;DHT22;64022;53.652;9.792;2023-04-01T15:41:05;20.30;64.70
30244;DHT22;64022;53.652;9.792;2023-04-01T15:43:47;20.30;64.80
30244;DHT22;64022;53.652;9.792;2023-04-01T15:46:43;20.30;64.80
30244;DHT22;64022;53.652;9.792;2023-04-01T15:49:39;20.30;64.70
30244;DHT22;64022;53.652;9.792;2023-04-01T15:52:24;20.30;64.70
30244;DHT22;64022;53.652;9.792;2023-04-01T16:00:27;20.30;64.70
30244;DHT22;64022;53.652;9.792;2023-04-01T16:06:00;20.30;64.70
30244;DHT22;64022;53.652;9.792;2023-04-01T16:11:25;20.30;64.60
30244;DHT22;64022;53.652;9.792;2023-04-01T16:14:14;20.30;64.70
30244;DHT22;64022;53.652;9.792;2023-04-01T16:19:56;20.20;64.60
30244;DHT22;64022;53.652;9.792;2023-04-01T16:22:44;20.20;64.50
30244;DHT22;64022;53.652;9.792;2023-04-01T16:31:13;20.30;64.60
30244;DHT22;64022;53.652;9.792;2023-04-01T16:33:50;20.30;64.60
30244;DHT22;64022;53.652;9.792;2023-04-01T16:36:29;20.30;64.60
30244;DHT22;64022;53.652;9.792;2023-04-01T16:40:20;20.20;64.50
30244;DHT22;64022;53.652;9.792;2023-04-01T16:42:47;20.30;64.50
30244;DHT22;64022;53.652;9.792;2023-04-01T16:47:49;20.20;64.50
30244;DHT22;64022;53.652;9.792;2023-04-01T16:50:22;20.20;64.50
30244;DHT22;64022;53.652;9.792;2023-04-01T16:53:14;20.20;64.50
30244;DHT22;64022;53.652;9.792;2023-04-01T16:58:27;20.20;64.50
30244;DHT22;64022;53.652;9.792;2023-04-01T17:01:05;20.20;64.40
30244;DHT22;64022;53.652;9.792;2023-04-01T17:03:57;20.20;64.40
30244;DHT22;64022;53.652;9.792;2023-04-01T17:11:38;20.20;64.20
30244;DHT22;64022;53.652;9.792;2023-04-01T17:14:40;20.20;64.40
30244;DHT22;64022;53.652;9.792;2023-04-01T17:17:32;20.20;64.40
30244;DHT22;64022;53.652;9.792;2023-04-01T17:22:38;20.20;64.40
30244;DHT22;64022;53.652;9.792;2023-04-01T17:25:28;20.20;64.40
30244;DHT22;64022;53.652;9.792;2023-04-01T17:30:52;20.20;64.30
30244;DHT22;64022;53.652;9.792;2023-04-01T17:35:59;20.10;64.20
30244;DHT22;64022;53.652;9.792;2023-04-01T17:47:18;20.10;64.20
30244;DHT22;64022;53.652;9.792;2023-04-01T17:52:45;20.10;64.20
30244;DHT22;64022;53.652;9.792;2023-04-01T17:58:30;20.10;64.10
30244;DHT22;64022;53.652;9.792;2023-04-01T18:01:02;20.10;64.20
30244;DHT22;64022;53.652;9.792;2023-04-01T18:03:45;20.10;64.10
30244;DHT22;64022;53.652;9.792;2023-04-01T18:18:19;20.10;64.10
30244;DHT22;64022;53.652;9.792;2023-04-01T18:26:26;20.10;64.00
30244;DHT22;64022;53.652;9.792;2023-04-01T18:35:50;20.10;64.00
30244;DHT22;64022;53.652;9.792;2023-04-01T18:43:33;20.10;63.90
30244;DHT22;64022;53.652;9.792;2023-04-01T18:46:30;20.10;63.80
30244;DHT22;64022;53.652;9.792;2023-04-01T18:52:03;20.00;63.80
30244;DHT22;64022;53.652;9.792;2023-04-01T18:57:27;20.00;63.80
30244;DHT22;64022;53.652;9.792;2023-04-01T19:00:41;20.00;63.80
30244;DHT22;64022;53.652;9.792;2023-04-01T19:03:37;20.00;63.80
30244;DHT22;64022;53.652;9.792;2023-04-01T19:05:56;20.00;63.80
30244;DHT22;64022;53.652;9.792;2023-04-01T19:08:26;20.00;63.80
30244;DHT22;64022;53.652;9.792;2023-04-01T19:11:08;20.00;63.70
30244;DHT22;64022;53.652;9.792;2023-04-01T19:16:46;20.00;63.60
30244;DHT22;64022;53.652;9.792;2023-04-01T19:19:34;20.00;63.70
30244;DHT22;64022;53.652;9.792;2023-04-01T19:28:26;20.00;63.60
30244;DHT22;64022;53.652;9.792;2023-04-01T19:31:01;20.00;63.80
30244;DHT22;64022;53.652;9.792;2023-04-01T19:36:20;20.00;63.70
30244;DHT22;64022;53.652;9.792;2023-04-01T19:41:49;20.00;63.60
30244;DHT22;64022;53.652;9.792;2023-04-01T19:47:14;20.00;63.60
30244;DHT22;64022;53.652;9.792;2023-04-01T19:49:53;20.00;63.60
30244;DHT22;64022;53.652;9.792;2023-04-01T19:52:32;20.00;63.60
30244;DHT22;64022;53.652;9.792;2023-04-01T19:58:04;20.00;63.50
30244;DHT22;64022;53.652;9.792;2023-04-01T20:00:44;20.00;63.50
30244;DHT22;64022;53.652;9.792;2023-04-01T20:03:48;19.90;63.40
30244;DHT22;64022;53.652;9.792;2023-04-01T20:06:50;20.00;63.40
30244;DHT22;64022;53.652;9.792;2023-04-01T20:14:51;19.90;63.40
30244;DHT22;64022;53.652;9.792;2023-04-01T20:27:49;19.90;63.20
30244;DHT22;64022;53.652;9.792;2023-04-01T20:30:38;19.90;63.20
30244;DHT22;64022;53.652;9.792;2023-04-01T20:33:48;19.90;63.20
30244;DHT22;64022;53.652;9.792;2023-04-01T20:39:11;19.90;63.20
30244;DHT22;64022;53.652;9.792;2023-04-01T20:50:28;20.00;63.40
30244;DHT22;64022;53.652;9.792;2023-04-01T21:01:13;20.00;63.50
30244;DHT22;64022;53.652;9.792;2023-04-01T21:15:09;19.90;63.40
30244;DHT22;64022;53.652;9.792;2023-04-01T21:17:56;19.90;63.50
30244;DHT22;64022;53.652;9.792;2023-04-01T21:31:36;19.90;63.60
30244;DHT22;64022;53.652;9.792;2023-04-01T21:37:32;19.90;63.50
30244;DHT22;64022;53.652;9.792;2023-04-01T21:42:53;19.90;63.60
30244;DHT22;64022;53.652;9.792;2023-04-01T21:53:58;19.90;63.60
30244;DHT22;64022;53.652;9.792;2023-04-01T22:10:39;19.90;63.50
30244;DHT22;64022;53.652;9.792;2023-04-01T22:13:31;19.90;63.60
30244;DHT22;64022;53.652;9.792;2023-04-01T22:16:23;19.90;63.50
30244;DHT22;64022;53.652;9.792;2023-04-01T22:21:51;19.90;63.60
30244;DHT22;64022;53.652;9.792;2023-04-01T22:27:39;19.90;63.50
30244;DHT22;64022;53.652;9.792;2023-04-01T22:32:44;19.90;63.60
30244;DHT22;64022;53.652;9.792;2023-04-01T22:35:18;19.90;63.60
30244;DHT22;64022;53.652;9.792;2023-04-01T22:41:02;19.90;63.60
30244;DHT22;64022;53.652;9.792;2023-04-01T22:43:37;19.90;63.60
30244;DHT22;64022;53.652;9.792;2023-04-01T22:54:19;19.90;63.50
30244;DHT22;64022;53.652;9.792;2023-04-01T22:56:57;19.90;63.50
30244;DHT22;64022;53.652;9.792;2023-04-01T23:02:24;19.90;63.40
30244;DHT22;64022;53.652;9.792;2023-04-01T23:04:59;19.90;63.50
30244;DHT22;64022;53.652;9.792;2023-04-01T23:10:39;19.90;63.50
30244;DHT22;64022;53.652;9.792;2023-04-01T23:13:10;19.90;63.40
30244;DHT22;64022;53.652;9.792;2023-04-01T23:15:39;19.80;63.40
30244;DHT22;64022;53.652;9.792;2023-04-01T23:18:25;19.80;63.40
30244;DHT22;64022;53.652;9.792;2023-04-01T23:21:13;19.90;63.40
30244;DHT22;64022;53.652;9.792;2023-04-01T23:23:53;19.80;63.40
30244;DHT22;64022;53.652;9.792;2023-04-01T23:26:39;19.80;63.40
30244;DHT22;64022;53.652;9.792;2023-04-01T23:29:13;19.80;63.50
30244;DHT22;64022;53.652;9.792;2023-04-01T23:31:47;19.80;63.40
30244;DHT22;64022;53.652;9.792;2023-04-01T23:36:44;19.80;63.50
30244;DHT22;64022;53.652;9.792;2023-04-01T23:41:55;19.90;63.40
30244;DHT22;64022;53.652;9.792;2023-04-01T23:44:24;19.80;63.40
30244;DHT22;64022;53.652;9.792;2023-04-01T23:46:51;19.80;63.40
30244;DHT22;64022;53.652;9.792;2023-04-01T23:49:21;19.80;63.40
30244;DHT22;64022;53.652;9.792;2023-04-01T23:51:56;19.80;63.30
30244;DHT22;64022;53.652;9.792;2023-04-01T23:54:34;19.80;63.40
30244;DHT22;64022;53.652;9.792;2023-04-01T23:57:13;19.80;63.40
30244;DHT22;64022;53.652;9.792;2023-04-01T23:59:39;19.80;63.30
